Time;durP1;ratioP1;P1;durP2;ratioP2;P2;SDS_P1;SDS_P2;PMS_P1;PMS_P2;Temp;Humidity;BMP_temperature;BMP_pressure;BME280_temperature;BME280_humidity;BME280_pressure;Samples;Min_cycle;Max_cycle;Signal;HPM_P1;HPM_P2
2021/12/06 00:01:03;;;;;;;3.92;1.90;;;5.40;99.90;;;;;;5045666;28;20017;-73
2021/12/06 00:03:38;;;;;;;4.03;2.00;;;5.40;99.90;;;;;;5048150;28;20033;-73
2021/12/06 00:06:04;;;;;;;3.60;1.80;;;5.40;99.90;;;;;;5048979;28;20052;-73
2021/12/06 00:08:31;;;;;;;4.75;2.45;;;5.40;99.90;;;;;;5050361;28;20535;-73
2021/12/06 00:10:57;;;;;;;4.97;2.58;;;5.40;99.90;;;;;;5030573;28;20115;-73
2021/12/06 00:13:23;;;;;;;6.05;2.47;;;5.40;99.90;;;;;;5040992;28;20167;-73
2021/12/06 00:15:50;;;;;;;5.88;2.33;;;5.40;99.90;;;;;;5045412;28;20033;-73
2021/12/06 00:18:17;;;;;;;7.65;2.80;;;5.30;99.90;;;;;;5044671;28;20493;-73
2021/12/06 00:20:44;;;;;;;8.05;3.28;;;5.30;99.90;;;;;;5045415;28;20021;-73
2021/12/06 00:23:10;;;;;;;10.15;3.30;;;5.30;99.90;;;;;;5044569;28;20025;-73
2021/12/06 00:25:36;;;;;;;6.82;2.97;;;5.20;99.90;;;;;;5044670;28;20390;-73
2021/12/06 00:28:02;;;;;;;7.60;2.80;;;5.20;99.90;;;;;;5046833;28;20044;-73
2021/12/06 00:30:28;;;;;;;5.95;2.92;;;5.20;99.90;;;;;;5042595;28;20532;-73
2021/12/06 00:32:54;;;;;;;5.22;2.70;;;5.20;99.90;;;;;;5039046;28;20017;-73
2021/12/06 00:35:23;;;;;;;6.18;2.60;;;5.10;99.90;;;;;;5036794;28;20451;-73
2021/12/06 00:37:58;;;;;;;5.00;2.35;;;5.20;99.90;;;;;;5036794;28;20038;-73
2021/12/06 00:40:40;;;;;;;7.72;2.58;;;5.20;99.90;;;;;;5023953;28;20095;-73
2021/12/06 00:43:06;;;;;;;6.32;2.22;;;5.20;99.90;;;;;;5039958;28;20413;-72
2021/12/06 00:45:32;;;;;;;7.78;2.40;;;5.10;99.90;;;;;;5036171;28;20453;-73
2021/12/06 00:47:59;;;;;;;5.50;2.35;;;5.10;99.90;;;;;;5036100;28;20032;-72
2021/12/06 00:50:27;;;;;;;5.68;2.20;;;5.10;99.90;;;;;;5036990;28;20052;-73
2021/12/06 00:52:54;;;;;;;4.32;2.00;;;5.00;99.90;;;;;;5036179;28;20420;-73
2021/12/06 00:55:21;;;;;;;6.15;1.98;;;5.00;99.90;;;;;;5037712;28;20063;-73
2021/12/06 00:57:49;;;;;;;5.07;1.85;;;5.10;99.90;;;;;;5037388;28;20041;-73
2021/12/06 01:00:20;;;;;;;5.07;2.25;;;5.10;99.90;;;;;;5018113;28;20021;-73
2021/12/06 01:02:46;;;;;;;5.93;2.13;;;5.20;99.90;;;;;;5039519;28;20033;-73
2021/12/06 01:05:12;;;;;;;4.15;2.17;;;5.30;99.90;;;;;;5041081;28;20539;-73
2021/12/06 01:07:38;;;;;;;5.10;1.90;;;5.40;99.90;;;;;;5045348;28;20032;-72
2021/12/06 01:10:06;;;;;;;2.83;1.60;;;5.50;99.90;;;;;;5045697;28;20021;-73
2021/12/06 01:12:32;;;;;;;3.60;1.60;;;5.50;99.80;;;;;;5045776;28;20049;-73
2021/12/06 01:14:58;;;;;;;4.38;1.85;;;5.50;99.80;;;;;;5050580;28;20493;-73
2021/12/06 01:17:24;;;;;;;5.88;2.83;;;5.50;99.70;;;;;;5051286;28;20413;-73
2021/12/06 01:19:50;;;;;;;6.40;2.20;;;5.60;99.50;;;;;;5050948;28;20104;-73
2021/12/06 01:22:40;;;;;;;8.25;2.70;;;5.50;99.40;;;;;;5051132;28;20119;-73
2021/12/06 01:25:17;;;;;;;4.45;2.08;;;5.50;99.70;;;;;;5051041;28;21038;-73
2021/12/06 01:28:13;;;;;;;5.00;2.10;;;5.40;99.70;;;;;;5051140;28;20088;-73
2021/12/06 01:30:53;;;;;;;5.80;2.40;;;5.30;99.90;;;;;;5050602;28;20041;-73
2021/12/06 01:39:13;;;;;;;6.38;2.17;;;5.20;99.90;;;;;;5051568;28;20460;-73
2021/12/06 01:41:43;;;;;;;3.92;1.92;;;5.30;99.90;;;;;;5051890;28;20032;-73
2021/12/06 01:44:18;;;;;;;8.02;2.38;;;5.30;99.90;;;;;;5032971;28;20398;-73
2021/12/06 01:46:57;;;;;;;4.53;2.00;;;5.20;99.90;;;;;;5047261;28;20025;-73
2021/12/06 01:49:25;;;;;;;4.03;1.75;;;5.20;99.90;;;;;;5049513;28;20028;-72
2021/12/06 01:51:54;;;;;;;4.47;2.13;;;5.20;99.90;;;;;;5044293;28;20390;-73
2021/12/06 01:54:20;;;;;;;5.60;1.80;;;5.00;99.90;;;;;;5050355;28;20031;-73
2021/12/06 01:56:48;;;;;;;3.85;1.70;;;5.00;99.90;;;;;;5050913;28;20039;-72
2021/12/06 01:59:14;;;;;;;3.85;1.60;;;5.00;99.90;;;;;;5051168;28;20017;-73
2021/12/06 02:01:41;;;;;;;4.90;1.83;;;5.00;99.90;;;;;;5050375;28;20037;-72
2021/12/06 02:04:07;;;;;;;4.75;1.80;;;5.00;99.90;;;;;;5050597;28;20446;-73
2021/12/06 02:06:33;;;;;;;3.85;1.85;;;4.90;99.90;;;;;;5050515;28;20063;-73
2021/12/06 02:08:59;;;;;;;3.88;2.40;;;4.90;99.90;;;;;;5050733;28;20394;-72
2021/12/06 02:11:28;;;;;;;4.03;2.00;;;5.00;99.90;;;;;;5024830;28;20494;-73
2021/12/06 02:14:07;;;;;;;5.63;2.60;;;4.90;99.90;;;;;;5050785;28;20390;-72
2021/12/06 02:16:42;;;;;;;3.88;2.40;;;4.90;99.90;;;;;;5050363;28;20111;-73
2021/12/06 02:19:09;;;;;;;4.60;2.17;;;4.80;99.90;;;;;;5050655;28;20021;-73
2021/12/06 02:21:40;;;;;;;3.47;1.80;;;4.70;99.90;;;;;;5050452;28;20029;-72
2021/12/06 02:24:09;;;;;;;4.40;2.90;;;4.80;99.90;;;;;;5050434;28;20037;-73
2021/12/06 02:26:40;;;;;;;4.88;2.05;;;4.90;99.90;;;;;;5053931;28;20029;-73
2021/12/06 02:29:07;;;;;;;5.32;2.38;;;4.90;99.90;;;;;;5054878;28;20116;-73
2021/12/06 02:31:34;;;;;;;4.90;1.98;;;4.80;99.90;;;;;;5054008;28;20021;-73
2021/12/06 02:34:00;;;;;;;4.93;1.60;;;4.90;99.90;;;;;;5054336;28;20025;-73
2021/12/06 02:36:26;;;;;;;4.03;1.77;;;4.90;99.90;;;;;;5054000;28;20107;-73
2021/12/06 02:38:53;;;;;;;2.70;1.42;;;4.90;99.90;;;;;;5054175;28;20025;-73
2021/12/06 02:41:19;;;;;;;3.63;1.50;;;4.90;99.90;;;;;;5054978;28;20436;-73
2021/12/06 02:43:46;;;;;;;2.38;1.20;;;4.90;99.90;;;;;;5053700;28;20024;-73
2021/12/06 02:46:12;;;;;;;3.95;1.73;;;4.90;99.90;;;;;;5053859;28;20021;-73
2021/12/06 02:48:38;;;;;;;2.67;1.70;;;4.90;99.90;;;;;;5054043;28;20508;-73
2021/12/06 02:51:05;;;;;;;3.33;1.75;;;4.90;99.90;;;;;;5053917;28;20033;-73
2021/12/06 02:53:34;;;;;;;3.33;1.80;;;4.90;99.90;;;;;;5054451;28;20083;-73
2021/12/06 02:56:05;;;;;;;2.30;1.42;;;4.90;99.90;;;;;;5036180;28;20039;-74
2021/12/06 03:01:14;;;;;;;3.40;1.70;;;4.90;99.90;;;;;;5053746;28;20035;-73
2021/12/06 03:03:40;;;;;;;2.70;1.50;;;4.90;99.90;;;;;;5053972;28;20025;-73
2021/12/06 03:06:09;;;;;;;2.83;1.60;;;4.70;99.90;;;;;;5045536;28;20029;-73
2021/12/06 03:08:38;;;;;;;3.72;1.60;;;4.80;99.90;;;;;;5054153;28;20100;-73
2021/12/06 03:11:07;;;;;;;3.97;1.80;;;4.70;99.90;;;;;;5053410;28;20032;-73
2021/12/06 03:13:32;;;;;;;2.80;1.52;;;4.70;99.90;;;;;;5053161;28;20053;-73
2021/12/06 03:15:58;;;;;;;3.17;1.63;;;4.80;99.90;;;;;;5053437;28;20055;-73
2021/12/06 03:18:24;;;;;;;3.28;1.20;;;4.80;99.90;;;;;;5053689;28;20564;-73
2021/12/06 03:20:49;;;;;;;3.22;1.38;;;4.80;99.90;;;;;;5053266;28;20017;-73
2021/12/06 03:23:15;;;;;;;3.70;1.30;;;4.80;99.90;;;;;;5052726;28;20033;-73
2021/12/06 03:25:43;;;;;;;1.98;1.20;;;4.80;99.90;;;;;;5051924;28;20021;-73
2021/12/06 03:28:08;;;;;;;2.70;1.20;;;4.90;99.90;;;;;;5053316;28;20453;-73
2021/12/06 03:30:34;;;;;;;2.03;1.20;;;5.00;99.90;;;;;;5053332;28;20089;-73
2021/12/06 03:33:00;;;;;;;2.25;1.08;;;5.10;99.90;;;;;;5053164;28;20021;-73
2021/12/06 03:35:25;;;;;;;2.17;1.27;;;5.10;99.90;;;;;;5053243;28;20444;-74
2021/12/06 03:37:51;;;;;;;4.00;1.70;;;5.10;99.90;;;;;;5052687;28;20087;-73
2021/12/06 03:40:17;;;;;;;2.03;1.20;;;5.10;99.90;;;;;;5052877;28;20021;-73
2021/12/06 03:42:42;;;;;;;3.05;1.20;;;5.00;99.90;;;;;;5052719;28;20074;-73
2021/12/06 03:45:10;;;;;;;8.77;2.80;;;5.00;99.90;;;;;;5053304;28;20379;-73
2021/12/06 03:47:36;;;;;;;6.10;2.67;;;5.00;99.90;;;;;;5053643;28;20028;-73
2021/12/06 03:50:06;;;;;;;6.80;2.55;;;4.90;99.90;;;;;;5052816;28;20040;-73
2021/12/06 03:52:32;;;;;;;7.07;1.98;;;5.00;99.90;;;;;;5052733;28;20143;-73
2021/12/06 03:54:58;;;;;;;4.18;1.88;;;4.90;99.90;;;;;;5052814;28;20107;-73
2021/12/06 03:57:24;;;;;;;6.28;1.92;;;4.90;99.90;;;;;;5052302;28;20040;-73
2021/12/06 03:59:51;;;;;;;5.10;1.98;;;4.90;99.90;;;;;;5045560;28;20505;-73
2021/12/06 04:02:21;;;;;;;4.80;1.90;;;5.00;99.90;;;;;;5034492;28;20500;-73
2021/12/06 04:04:47;;;;;;;3.53;1.80;;;5.10;99.90;;;;;;5052912;28;20037;-73
2021/12/06 04:07:12;;;;;;;2.28;1.38;;;5.10;99.90;;;;;;5052246;28;20021;-73
2021/12/06 04:09:38;;;;;;;2.83;1.30;;;5.20;99.90;;;;;;5052580;28;20029;-73
2021/12/06 04:12:09;;;;;;;3.38;1.30;;;5.30;99.90;;;;;;5034214;28;20041;-73
2021/12/06 04:14:35;;;;;;;1.63;1.00;;;5.40;99.90;;;;;;5034886;28;20025;-73
2021/12/06 04:17:01;;;;;;;2.53;1.40;;;5.50;99.90;;;;;;5052211;28;20029;-73
2021/12/06 04:19:27;;;;;;;2.15;1.10;;;5.40;99.90;;;;;;5050969;28;20037;-73
2021/12/06 04:21:53;;;;;;;2.88;1.20;;;5.40;99.90;;;;;;5044238;28;20025;-73
2021/12/06 04:24:19;;;;;;;3.85;1.70;;;5.40;99.90;;;;;;5051925;28;20029;-73
2021/12/06 04:26:45;;;;;;;2.97;1.48;;;5.50;99.90;;;;;;5052087;28;20112;-73
2021/12/06 04:29:11;;;;;;;3.15;1.40;;;5.50;99.90;;;;;;5052308;28;20056;-73
2021/12/06 04:31:47;;;;;;;2.80;1.40;;;5.50;99.90;;;;;;5052035;28;20017;-73
2021/12/06 04:34:13;;;;;;;4.15;1.55;;;5.50;99.90;;;;;;5052045;28;20057;-73
2021/12/06 04:36:41;;;;;;;3.15;1.50;;;5.60;99.90;;;;;;5051789;28;20080;-73
2021/12/06 04:39:10;;;;;;;5.78;2.20;;;5.60;99.90;;;;;;5051840;28;20029;-73
2021/12/06 04:41:37;;;;;;;3.53;1.60;;;5.60;99.90;;;;;;5052459;28;20037;-73
2021/12/06 04:44:04;;;;;;;4.28;1.70;;;5.60;99.90;;;;;;5051852;28;20427;-73
2021/12/06 04:46:29;;;;;;;5.03;1.75;;;5.70;99.90;;;;;;5051611;28;20504;-73
2021/12/06 04:48:55;;;;;;;5.30;1.40;;;5.60;99.90;;;;;;5051792;28;20025;-73
2021/12/06 04:51:21;;;;;;;2.78;1.20;;;5.60;99.90;;;;;;5052007;28;20059;-73
2021/12/06 04:53:48;;;;;;;2.55;1.20;;;5.50;99.90;;;;;;5051763;28;20029;-73
2021/12/06 04:56:17;;;;;;;2.08;1.30;;;5.30;99.90;;;;;;5051577;28;20497;-73
2021/12/06 04:58:51;;;;;;;4.20;1.50;;;5.30;99.90;;;;;;5050216;28;20040;-73
2021/12/06 05:01:20;;;;;;;3.17;1.58;;;5.20;99.90;;;;;;5051348;28;20021;-73
2021/12/06 05:03:47;;;;;;;5.53;1.50;;;5.20;99.90;;;;;;5051665;28;20033;-73
2021/12/06 05:06:18;;;;;;;4.28;1.80;;;5.10;99.90;;;;;;5059339;28;20021;-72
2021/12/06 05:08:50;;;;;;;3.85;1.80;;;5.10;99.90;;;;;;5049559;28;20029;-73
2021/12/06 05:11:18;;;;;;;4.35;1.90;;;5.10;99.90;;;;;;5051255;28;20393;-73
2021/12/06 05:13:46;;;;;;;5.40;1.98;;;5.00;99.90;;;;;;5050826;28;20118;-73
2021/12/06 05:16:11;;;;;;;5.57;2.47;;;4.90;99.90;;;;;;5051497;28;20109;-73
2021/12/06 05:18:38;;;;;;;6.70;2.95;;;4.90;99.90;;;;;;5051418;28;20115;-73
2021/12/06 05:21:04;;;;;;;7.30;2.75;;;4.90;99.90;;;;;;5051246;28;20508;-73
2021/12/06 05:23:30;;;;;;;6.38;2.40;;;4.90;99.90;;;;;;5051741;28;20457;-73
2021/12/06 05:25:56;;;;;;;5.50;2.60;;;4.90;99.90;;;;;;5032977;28;20405;-72
2021/12/06 05:28:26;;;;;;;4.35;2.40;;;4.90;99.90;;;;;;5051088;28;20088;-73
2021/12/06 05:30:55;;;;;;;6.40;3.00;;;4.80;99.90;;;;;;5051207;28;20020;-73
2021/12/06 05:33:29;;;;;;;6.75;3.20;;;4.80;99.90;;;;;;5051064;28;20025;-73
2021/12/06 05:35:56;;;;;;;;;;;4.70;99.90;;;;;;5051077;28;20051;-73
2021/12/06 05:38:22;;;;;;;5.97;3.40;;;4.70;99.90;;;;;;5051123;28;20007;-73
2021/12/06 05:40:47;;;;;;;6.88;3.08;;;4.80;99.90;;;;;;5051223;28;20096;-73
2021/12/06 05:43:13;;;;;;;5.63;2.92;;;4.80;99.90;;;;;;5050856;28;20090;-72
2021/12/06 05:45:39;;;;;;;10.25;3.88;;;4.70;99.90;;;;;;5051258;28;20059;-73
2021/12/06 05:48:06;;;;;;;10.15;4.25;;;4.70;99.90;;;;;;5050745;28;20068;-73
2021/12/06 05:50:32;;;;;;;6.15;2.65;;;4.80;99.90;;;;;;5051232;28;20117;-74
2021/12/06 05:52:58;;;;;;;5.15;2.05;;;4.80;99.90;;;;;;5050370;28;20071;-74
2021/12/06 05:55:27;;;;;;;3.88;2.03;;;4.90;99.90;;;;;;5051185;28;20025;-73
2021/12/06 05:57:53;;;;;;;5.20;1.67;;;4.90;99.90;;;;;;5050553;28;20036;-73
2021/12/06 06:00:21;;;;;;;3.90;1.58;;;4.90;99.90;;;;;;5050164;28;20029;-73
2021/12/06 06:02:47;;;;;;;5.70;2.10;;;5.00;99.90;;;;;;5050771;28;20029;-73
2021/12/06 06:05:14;;;;;;;4.45;2.28;;;5.00;99.90;;;;;;5050062;28;20108;-72
2021/12/06 06:07:40;;;;;;;2.33;1.67;;;5.00;99.90;;;;;;5050245;28;20021;-73
2021/12/06 06:10:06;;;;;;;4.03;1.90;;;5.00;99.90;;;;;;5050549;28;20189;-73
2021/12/06 06:12:32;;;;;;;4.70;1.60;;;5.00;99.90;;;;;;5050337;28;20086;-73
2021/12/06 06:14:58;;;;;;;4.47;1.88;;;5.10;99.90;;;;;;5043416;28;20030;-73
2021/12/06 06:17:24;;;;;;;3.60;1.80;;;5.00;99.90;;;;;;5050993;28;20030;-72
2021/12/06 06:19:54;;;;;;;3.25;1.90;;;5.00;99.90;;;;;;5050282;28;20436;-73
2021/12/06 06:22:20;;;;;;;5.07;1.90;;;5.00;99.90;;;;;;5048690;28;20103;-73
2021/12/06 06:24:46;;;;;;;5.18;2.10;;;5.00;99.90;;;;;;5049639;28;20398;-73
2021/12/06 06:27:12;;;;;;;4.68;2.10;;;5.00;99.90;;;;;;5050152;28;20037;-74
2021/12/06 06:29:38;;;;;;;5.18;2.42;;;5.00;99.90;;;;;;5050890;28;20018;-73
2021/12/06 06:32:05;;;;;;;8.18;3.55;;;5.00;99.90;;;;;;5050157;28;20039;-73
2021/12/06 06:34:31;;;;;;;11.77;5.60;;;5.00;99.90;;;;;;5050079;28;20080;-73
2021/12/06 06:36:57;;;;;;;16.25;6.13;;;5.00;99.90;;;;;;5050071;28;20040;-74
2021/12/06 06:39:23;;;;;;;12.10;5.90;;;4.90;99.90;;;;;;5050296;28;20417;-73
2021/12/06 06:41:50;;;;;;;10.55;6.00;;;4.90;99.90;;;;;;5050517;28;20067;-73
2021/12/06 06:44:17;;;;;;;9.00;5.47;;;4.90;99.90;;;;;;5050544;28;20021;-73
2021/12/06 06:46:44;;;;;;;12.98;7.45;;;4.90;99.90;;;;;;5050159;28;20021;-73
2021/12/06 06:49:11;;;;;;;8.95;8.05;;;4.80;99.90;;;;;;5049926;28;20111;-73
2021/12/06 06:51:37;;;;;;;10.45;7.38;;;4.80;99.90;;;;;;5051217;28;20021;-73
2021/12/06 06:54:04;;;;;;;8.90;5.65;;;4.80;99.90;;;;;;5043757;28;20034;-72
2021/12/06 06:56:30;;;;;;;8.85;6.47;;;4.80;99.90;;;;;;5050487;28;20500;-73
2021/12/06 06:58:57;;;;;;;14.77;8.57;;;4.70;99.90;;;;;;5050064;28;20059;-73
2021/12/06 07:01:23;;;;;;;22.73;12.00;;;4.70;99.90;;;;;;5050351;28;20502;-73
2021/12/06 07:03:53;;;;;;;19.60;11.80;;;4.70;99.90;;;;;;5049797;28;20501;-73
2021/12/06 07:06:21;;;;;;;15.13;8.73;;;4.70;99.90;;;;;;5023034;28;20036;-73
2021/12/06 07:08:46;;;;;;;21.33;11.55;;;4.70;99.90;;;;;;5050251;28;20056;-73
2021/12/06 07:11:12;;;;;;;17.98;13.25;;;4.60;99.90;;;;;;5049925;28;20056;-73
2021/12/06 07:13:39;;;;;;;15.18;12.23;;;4.60;99.90;;;;;;5052658;28;20052;-73
2021/12/06 07:16:06;;;;;;;14.15;12.75;;;4.60;99.90;;;;;;5053312;28;20460;-73
2021/12/06 07:18:32;;;;;;;15.13;13.65;;;4.60;99.90;;;;;;5053099;28;20525;-73
2021/12/06 07:20:58;;;;;;;12.00;10.77;;;4.60;99.90;;;;;;5052873;28;20032;-73
2021/12/06 07:23:24;;;;;;;6.57;5.47;;;4.60;99.90;;;;;;5053741;28;20493;-73
2021/12/06 07:25:50;;;;;;;6.68;4.60;;;4.60;99.90;;;;;;5051359;28;20486;-73
2021/12/06 07:28:15;;;;;;;7.20;3.90;;;4.70;99.90;;;;;;5053067;28;20417;-73
2021/12/06 07:30:42;;;;;;;10.10;4.47;;;4.70;99.90;;;;;;5053277;28;20060;-73
2021/12/06 07:33:07;;;;;;;10.38;5.45;;;4.70;99.90;;;;;;5052761;28;20797;-73
2021/12/06 07:35:36;;;;;;;9.48;4.75;;;4.70;99.90;;;;;;5053853;28;20102;-72
2021/12/06 07:38:05;;;;;;;8.70;4.65;;;4.70;99.90;;;;;;5052796;28;20037;-73
2021/12/06 07:40:31;;;;;;;7.55;4.40;;;4.70;99.90;;;;;;5053053;28;20025;-72
2021/12/06 07:42:57;;;;;;;9.57;4.93;;;4.70;99.90;;;;;;5053006;28;20025;-72
2021/12/06 07:45:24;;;;;;;8.38;4.30;;;4.80;99.90;;;;;;5052729;28;20055;-73
2021/12/06 07:47:49;;;;;;;9.43;3.90;;;4.80;99.90;;;;;;5035434;28;20063;-73
2021/12/06 07:50:17;;;;;;;6.50;3.28;;;4.90;99.90;;;;;;5052700;28;20426;-73
2021/12/06 07:52:44;;;;;;;8.73;3.50;;;5.00;99.90;;;;;;5052216;28;20039;-72
2021/12/06 07:55:15;;;;;;;7.38;3.55;;;5.10;99.90;;;;;;5051992;28;20028;-72
2021/12/06 07:57:41;;;;;;;6.15;3.33;;;5.20;99.90;;;;;;5052689;28;20359;-72
2021/12/06 08:00:11;;;;;;;6.38;3.03;;;5.30;99.90;;;;;;5052840;28;20025;-72
2021/12/06 08:02:38;;;;;;;6.40;2.92;;;5.30;99.90;;;;;;5053002;28;20040;-73
2021/12/06 08:07:49;;;;;;;7.75;3.20;;;5.50;99.90;;;;;;5052869;28;20579;-72
2021/12/06 08:10:15;;;;;;;6.97;3.13;;;5.70;99.90;;;;;;5051533;28;20077;-73
2021/12/06 08:12:42;;;;;;;6.60;2.95;;;6.00;99.90;;;;;;5052568;28;20021;-72
2021/12/06 08:15:09;;;;;;;7.15;3.00;;;6.30;99.90;;;;;;5051970;28;20033;-73
2021/12/06 08:17:35;;;;;;;10.90;3.20;;;6.80;99.90;;;;;;5052276;28;20416;-72
2021/12/06 08:20:01;;;;;;;10.07;3.60;;;7.60;99.90;;;;;;5051936;28;20025;-72
2021/12/06 08:22:26;;;;;;;7.47;3.00;;;9.30;99.80;;;;;;5048011;28;20041;-73
2021/12/06 08:24:52;;;;;;;8.90;3.60;;;12.40;92.50;;;;;;5051627;28;20025;-72
2021/12/06 08:27:18;;;;;;;11.25;3.95;;;15.20;79.30;;;;;;5051807;28;20104;-73
2021/12/06 08:29:43;;;;;;;9.35;3.60;;;16.70;69.90;;;;;;5048623;28;20108;-73
2021/12/06 08:32:11;;;;;;;9.98;4.57;;;17.90;65.00;;;;;;5047079;28;20029;-73
2021/12/06 08:34:41;;;;;;;8.85;3.40;;;18.40;61.40;;;;;;5046252;28;20043;-73
2021/12/06 08:37:08;;;;;;;6.47;3.53;;;18.50;60.10;;;;;;5047341;28;20145;-73
2021/12/06 08:39:34;;;;;;;7.63;3.70;;;17.20;60.50;;;;;;5038524;28;20021;-73
2021/12/06 08:42:00;;;;;;;8.88;4.55;;;16.70;63.80;;;;;;5047462;28;20033;-73
2021/12/06 08:44:25;;;;;;;6.75;3.95;;;15.40;65.40;;;;;;5047959;28;20496;-74
2021/12/06 08:46:51;;;;;;;7.78;4.28;;;13.80;69.80;;;;;;5045888;28;20025;-73
2021/12/06 08:49:17;;;;;;;6.40;3.30;;;12.40;75.00;;;;;;5042806;28;20025;-73
2021/12/06 08:51:47;;;;;;;7.00;2.35;;;12.50;77.70;;;;;;5046441;28;20036;-73
2021/12/06 08:54:22;;;;;;;4.28;1.90;;;12.60;77.10;;;;;;5046200;28;20032;-73
2021/12/06 08:56:48;;;;;;;5.43;2.00;;;12.00;79.10;;;;;;5043765;28;20029;-73
2021/12/06 08:59:17;;;;;;;5.72;2.38;;;11.50;81.80;;;;;;5026647;28;20533;-73
2021/12/06 09:01:43;;;;;;;6.03;2.30;;;11.10;84.20;;;;;;5047093;28;20563;-73
2021/12/06 09:04:12;;;;;;;6.07;2.53;;;10.80;86.20;;;;;;5045153;28;20025;-73
2021/12/06 09:06:41;;;;;;;7.90;2.17;;;10.70;87.10;;;;;;5038688;28;20037;-73
2021/12/06 09:09:08;;;;;;;5.85;2.25;;;10.60;87.40;;;;;;5047318;28;20409;-72
2021/12/06 09:11:36;;;;;;;8.48;2.75;;;10.70;87.30;;;;;;5047932;28;20013;-72
2021/12/06 09:14:02;;;;;;;8.23;3.25;;;10.70;87.40;;;;;;5028607;28;20563;-72
2021/12/06 09:16:28;;;;;;;7.65;3.22;;;10.70;88.20;;;;;;5046524;28;20056;-72
2021/12/06 09:18:53;;;;;;;4.82;2.00;;;10.90;88.20;;;;;;5047345;28;20489;-72
2021/12/06 09:21:22;;;;;;;4.50;2.00;;;10.90;87.40;;;;;;5047504;28;20386;-72
2021/12/06 09:23:51;;;;;;;3.60;1.65;;;11.00;86.50;;;;;;5050627;28;20553;-72
2021/12/06 09:26:17;;;;;;;4.30;1.83;;;11.10;86.30;;;;;;5046874;28;20021;-72
2021/12/06 09:28:43;;;;;;;4.38;2.05;;;11.10;87.10;;;;;;5051104;28;20069;-72
2021/12/06 09:31:10;;;;;;;4.45;2.25;;;11.10;86.90;;;;;;5049973;28;20036;-72
2021/12/06 09:33:38;;;;;;;5.15;2.05;;;11.20;86.70;;;;;;5050465;28;20561;-72
2021/12/06 09:36:05;;;;;;;5.13;1.90;;;11.30;86.50;;;;;;5050537;28;20045;-72
2021/12/06 09:38:36;;;;;;;3.60;1.83;;;11.40;86.40;;;;;;5051181;28;20443;-72
2021/12/06 09:41:08;;;;;;;4.55;2.00;;;11.60;86.70;;;;;;5050672;28;20025;-72
2021/12/06 09:43:38;;;;;;;4.35;2.03;;;11.60;85.80;;;;;;5049997;28;20033;-72
2021/12/06 09:46:04;;;;;;;2.78;1.50;;;11.70;85.40;;;;;;5049473;28;20024;-72
2021/12/06 09:48:30;;;;;;;5.30;2.00;;;11.80;85.90;;;;;;5050339;28;20021;-70
2021/12/06 09:51:00;;;;;;;4.93;1.80;;;11.80;85.20;;;;;;5050446;28;20553;-70
2021/12/06 09:53:29;;;;;;;7.05;2.65;;;11.90;84.60;;;;;;5048486;28;20071;-70
2021/12/06 09:55:59;;;;;;;8.43;3.35;;;12.00;84.60;;;;;;5050112;28;20024;-70
2021/12/06 09:58:25;;;;;;;5.03;2.30;;;12.00;84.60;;;;;;5050488;28;20284;-69
2021/12/06 10:00:59;;;;;;;5.93;2.38;;;12.10;84.30;;;;;;5049986;28;20032;-70
2021/12/06 10:03:29;;;;;;;4.85;2.20;;;12.30;83.70;;;;;;5046693;28;20398;-70
2021/12/06 10:06:02;;;;;;;5.78;2.30;;;12.30;83.40;;;;;;5050582;28;20474;-70
2021/12/06 10:08:44;;;;;;;4.65;1.80;;;12.30;83.30;;;;;;5048332;28;20028;-70
2021/12/06 10:11:10;;;;;;;5.03;1.73;;;12.40;82.80;;;;;;5050427;28;20401;-70
2021/12/06 10:13:37;;;;;;;3.08;1.48;;;12.30;83.00;;;;;;5049373;28;20021;-70
2021/12/06 10:16:04;;;;;;;7.22;1.60;;;12.30;83.00;;;;;;5050180;28;20477;-69
2021/12/06 10:18:30;;;;;;;4.88;1.70;;;12.40;83.20;;;;;;5050146;28;20029;-70
2021/12/06 10:20:57;;;;;;;4.43;1.75;;;12.40;83.20;;;;;;5050396;28;20104;-73
2021/12/06 10:23:23;;;;;;;4.05;1.90;;;12.40;82.80;;;;;;5050563;28;20107;-70
2021/12/06 10:25:51;;;;;;;5.60;2.00;;;12.40;83.20;;;;;;5050256;28;20065;-68
2021/12/06 10:28:19;;;;;;;10.15;3.70;;;12.50;83.50;;;;;;5049955;28;20029;-71
2021/12/06 10:30:49;;;;;;;5.60;3.30;;;12.50;83.50;;;;;;5050396;28;20024;-69
2021/12/06 10:33:20;;;;;;;9.77;2.95;;;12.50;82.90;;;;;;5037736;28;20021;-69
2021/12/06 10:35:51;;;;;;;9.90;2.92;;;12.60;82.70;;;;;;5050101;28;20050;-70
2021/12/06 10:38:25;;;;;;;6.75;3.08;;;12.70;82.70;;;;;;5050451;28;20131;-70
2021/12/06 10:40:57;;;;;;;6.82;2.28;;;12.80;82.30;;;;;;5046955;28;20020;-71
2021/12/06 10:43:22;;;;;;;4.95;2.47;;;12.80;81.10;;;;;;5048534;28;20040;-72
2021/12/06 10:45:49;;;;;;;5.97;2.30;;;12.90;80.50;;;;;;5042479;28;20021;-73
2021/12/06 10:48:15;;;;;;;4.65;1.75;;;13.00;80.40;;;;;;5045292;28;20044;-72
2021/12/06 10:50:53;;;;;;;3.75;1.80;;;13.10;79.90;;;;;;5050216;28;20087;-72
2021/12/06 10:53:28;;;;;;;5.72;2.58;;;13.10;79.70;;;;;;5049106;28;20497;-72
2021/12/06 10:55:56;;;;;;;4.75;2.50;;;13.10;80.70;;;;;;5046794;28;20099;-72
2021/12/06 10:58:26;;;;;;;7.75;3.47;;;13.30;79.70;;;;;;5049008;28;20067;-72
2021/12/06 11:00:54;;;;;;;5.35;2.22;;;13.40;80.20;;;;;;5049639;28;20024;-71
2021/12/06 11:03:34;;;;;;;5.25;2.60;;;13.50;78.60;;;;;;5052124;28;20032;-72
2021/12/06 11:06:05;;;;;;;4.97;2.33;;;13.50;78.60;;;;;;5051755;28;20507;-72
2021/12/06 11:08:37;;;;;;;5.88;2.40;;;13.50;78.40;;;;;;5052126;28;20288;-72
2021/12/06 11:11:11;;;;;;;5.90;1.60;;;13.80;79.00;;;;;;5053553;28;20496;-72
2021/12/06 11:13:44;;;;;;;4.68;1.77;;;14.10;76.30;;;;;;5052969;28;20027;-71
2021/12/06 11:16:09;;;;;;;3.03;1.30;;;14.30;76.10;;;;;;5035114;28;20033;-71
2021/12/06 11:18:50;;;;;;;3.65;1.52;;;14.40;74.70;;;;;;5050475;28;20090;-74
2021/12/06 11:21:26;;;;;;;3.20;1.38;;;14.60;73.70;;;;;;5039594;28;20112;-74
2021/12/06 11:24:01;;;;;;;4.78;1.42;;;14.80;72.20;;;;;;5052284;28;20119;-74
2021/12/06 11:26:28;;;;;;;4.25;1.25;;;14.90;70.40;;;;;;5053149;28;20108;-74
2021/12/06 11:28:54;;;;;;;4.80;1.65;;;15.00;70.00;;;;;;5051683;28;20029;-74
2021/12/06 11:31:20;;;;;;;3.25;1.50;;;;;;;;;;5035213;28;20021;-74
2021/12/06 11:33:58;;;;;;;3.22;1.30;;;;;;;;;;5052080;28;20401;-74
2021/12/06 11:36:25;;;;;;;3.65;1.50;;;;;;;;;;5039854;28;20045;-74
2021/12/06 11:38:57;;;;;;;2.97;1.25;;;;;;;;;;5052814;28;20029;-74
2021/12/06 11:41:23;;;;;;;3.22;1.38;;;;;;;;;;5052877;28;20053;-73
2021/12/06 11:43:49;;;;;;;2.70;1.15;;;;;;;;;;5051053;28;20032;-74
2021/12/06 11:46:26;;;;;;;3.40;1.17;;;;;;;;;;5052677;28;20025;-74
2021/12/06 11:48:52;;;;;;;2.10;1.00;;;;;;;;;;5052363;28;20037;-74
2021/12/06 11:51:19;;;;;;;2.70;1.00;;;;;;;;;;5052566;28;20417;-74
2021/12/06 11:53:46;;;;;;;4.55;1.35;;;;;;;;;;5052264;28;20029;-73
2021/12/06 11:56:20;;;;;;;2.72;1.15;;;;;;;;;;5049539;28;20036;-73
2021/12/06 11:58:51;;;;;;;4.63;1.30;;;;;;;;;;5052056;28;20072;-73
2021/12/06 12:01:20;;;;;;;1.90;1.00;;;;;;;;;;5052134;28;20071;-73
2021/12/06 12:03:48;;;;;;;6.93;3.03;;;;;;;;;;5051241;28;20383;-74
2021/12/06 12:06:21;;;;;;;3.10;1.48;;;;;;;;;;5052272;28;20068;-79
2021/12/06 12:08:47;;;;;;;8.05;3.08;;;;;;;;;;5051044;28;20037;-73
2021/12/06 12:11:14;;;;;;;8.70;3.78;;;;;;;;;;5046100;28;20132;-71
2021/12/06 12:13:42;;;;;;;6.63;2.65;;;;;;;;;;5048057;28;20029;-69
2021/12/06 12:16:10;;;;;;;8.15;3.88;;;;;;;;;;5047898;28;20079;-70
2021/12/06 12:18:38;;;;;;;5.10;1.75;;;;;;;;;;5048552;28;20401;-70
2021/12/06 12:21:04;;;;;;;3.47;1.40;;;;;;;;;;5048690;28;20462;-70
2021/12/06 12:23:32;;;;;;;2.80;1.20;;;;;;;;;;5048748;28;20054;-69
2021/12/06 12:26:04;;;;;;;2.78;1.30;;;;;;;;;;5047332;28;20021;-70
2021/12/06 12:29:00;;;;;;;5.00;1.90;;;;;;;;;;5047833;28;20082;-70
2021/12/06 12:31:20;;;;;;;3.03;1.45;;;;;;;;;;5041725;28;20636;-70
2021/12/06 12:33:48;;;;;;;3.67;1.60;;;;;;;;;;5038782;28;20036;-70
2021/12/06 12:36:16;;;;;;;2.20;1.20;;;;;;;;;;5047089;28;20047;-70
2021/12/06 12:38:44;;;;;;;2.40;1.17;;;;;;;;;;5048041;28;20514;-70
2021/12/06 12:41:13;;;;;;;3.97;1.42;;;15.30;68.90;;;;;;5047691;28;20539;-70
2021/12/06 12:43:59;;;;;;;3.33;1.30;;;23.50;46.90;;;;;;5047798;28;20043;-70
2021/12/06 12:46:34;;;;;;;3.35;1.65;;;22.90;46.80;;;;;;5041610;28;20009;-70
2021/12/06 12:49:03;;;;;;;2.97;1.40;;;23.10;47.30;;;;;;5047400;28;20021;-70
2021/12/06 12:51:37;;;;;;;3.50;1.70;;;22.60;45.60;;;;;;5046901;28;20024;-71
2021/12/06 12:54:08;;;;;;;5.78;1.95;;;22.20;46.60;;;;;;5044818;28;20063;-71
2021/12/06 12:56:48;;;;;;;5.40;2.10;;;22.00;46.60;;;;;;5047109;28;20059;-70
2021/12/06 12:59:19;;;;;;;12.95;5.85;;;21.90;45.20;;;;;;5047590;28;20642;-70
2021/12/06 13:02:04;;;;;;;7.57;2.83;;;23.80;45.70;;;;;;5047105;28;20013;-72
2021/12/06 13:04:59;;;;;;;6.10;2.15;;;25.80;43.40;;;;;;5046400;28;20044;-70
2021/12/06 13:07:28;;;;;;;5.75;1.80;;;26.30;40.30;;;;;;5040672;28;20024;-70
2021/12/06 13:09:56;;;;;;;2.78;0.93;;;28.40;38.30;;;;;;5045176;28;20111;-70
2021/12/06 13:12:22;;;;;;;2.03;0.98;;;29.10;37.10;;;;;;5048094;28;20027;-70
2021/12/06 13:14:56;;;;;;;2.10;0.90;;;28.10;36.30;;;;;;5047066;28;20037;-70
2021/12/06 13:17:35;;;;;;;2.63;1.10;;;23.90;38.60;;;;;;5047134;28;20047;-70
2021/12/06 13:20:19;;;;;;;5.28;1.73;;;26.20;39.60;;;;;;5047229;28;20025;-70